Mauldin, South Carolina
Current Conditions -  °F | °C
As of 6:47 AM on Sunday 21 Dec 2014 (Local Time) from KGYH Reporting Station
Overcast Overcast  
Wind Chill: 36°   Ceiling: 2200
Heat Index: 39°   Visibility: 7mi
Dew Point: 39°   Wind: 5mph
Humidity: 100%   Direction: 50°NE
Pressure: 30.24"   Gusts: NA
Location:  34.78°N, 82.31°W
Report Text: KGYH 211147Z 05004KT 7SM OVC022 04/04 A3024
Loading
Personal Weather Stations






























Interactive Weather Map New forecast layout! Learn more

10-Day Weather Forecast

Advertisements
Track Severe Weather on mobile